Grayling, Alaska
Current Conditions -  °F | °C
As of 4:16 AM on Saturday 25 Oct 2014 (Local Time) from PANV Reporting Station
Scattered Clouds Scattered Clouds  
Wind Chill: 18°   Ceiling: Unl
Heat Index: 28°   Visibility: 10mi
Dew Point: 25°   Wind: 13mph
Humidity: 86%   Direction: 180°S
Pressure: 29.86"   Gusts: NA
Location:  62.92°N, 160.07°W
Report Text: PANV 251216Z AUTO 18011KT 10SM SCT048 M02/M04 A2986 RMK AO1
Loading
Personal Weather Stations






























Interactive Weather Map
Tropical Storm Tracking
New forecast layout! Learn more

10-Day Weather Forecast

Advertisements
Track Severe Weather on mobile